createdAt,value
2017-03-16T00:00:28.513Z,3.8
2017-03-16T00:01:30.369Z,3.8
2017-03-16T00:02:32.223Z,3.8
2017-03-16T00:03:34.349Z,3.8
2017-03-16T00:04:36.489Z,3.8
2017-03-16T00:05:38.618Z,3.8
2017-03-16T00:06:40.700Z,3.8
2017-03-16T00:07:43.183Z,3.7
2017-03-16T00:08:45.187Z,3.7
2017-03-16T00:09:47.102Z,3.8
2017-03-16T00:10:49.860Z,3.8
2017-03-16T00:11:51.718Z,3.8
2017-03-16T00:12:53.576Z,3.8
2017-03-16T00:13:55.428Z,3.7
2017-03-16T00:14:57.285Z,3.7
2017-03-16T00:15:59.157Z,3.7
2017-03-16T00:17:00.999Z,3.7
2017-03-16T00:18:02.852Z,3.7
2017-03-16T00:19:04.700Z,3.7
2017-03-16T00:20:06.896Z,3.7
2017-03-16T00:21:08.748Z,3.6
2017-03-16T00:22:10.593Z,3.5
2017-03-16T00:23:12.450Z,3.6
2017-03-16T00:24:14.305Z,3.6
2017-03-16T00:25:16.153Z,3.5
2017-03-16T00:26:18.506Z,3.6
2017-03-16T00:27:20.551Z,3.5
2017-03-16T00:28:22.685Z,3.4
2017-03-16T00:29:24.781Z,3.3
2017-03-16T00:30:26.893Z,3.4
2017-03-16T00:31:29.266Z,3.4
2017-03-16T00:32:31.590Z,3.4
2017-03-16T00:33:33.957Z,3.5
2017-03-16T00:34:36.055Z,3.4
2017-03-16T00:35:38.176Z,3.3
2017-03-16T00:36:40.549Z,3.4
2017-03-16T00:37:42.410Z,3.2
2017-03-16T00:38:44.249Z,3.2
2017-03-16T00:39:46.093Z,3.3
2017-03-16T00:40:47.949Z,3.3
2017-03-16T00:41:49.792Z,3.4
2017-03-16T00:42:51.651Z,3.5
2017-03-16T00:43:53.494Z,3.5
2017-03-16T00:44:55.332Z,3.5
2017-03-16T00:45:57.187Z,3.6
2017-03-16T00:46:59.039Z,3.6
2017-03-16T00:48:01.238Z,3.5
2017-03-16T00:49:03.074Z,3.5
2017-03-16T00:50:04.931Z,3.4
2017-03-16T00:51:06.976Z,3.5
2017-03-16T00:52:09.063Z,3.6
2017-03-16T00:53:11.196Z,3.5
2017-03-16T00:54:13.328Z,3.5
2017-03-16T00:55:15.172Z,3.5
2017-03-16T00:56:17.034Z,3.6
2017-03-16T00:57:18.871Z,3.5
2017-03-16T00:58:20.720Z,3.6
2017-03-16T00:59:22.576Z,3.6
2017-03-16T01:00:24.777Z,3.5
2017-03-16T01:01:26.631Z,3.5
2017-03-16T01:02:28.487Z,3.5
2017-03-16T01:03:30.862Z,3.4
2017-03-16T01:04:32.940Z,3.3
2017-03-16T01:05:35.076Z,3.3
2017-03-16T01:06:36.923Z,3.2
2017-03-16T01:07:38.769Z,3.3
2017-03-16T01:08:40.622Z,3.3
2017-03-16T01:09:42.803Z,3.3
2017-03-16T01:10:45.012Z,3.2
2017-03-16T01:11:46.859Z,3.1
2017-03-16T01:12:48.711Z,3.1
2017-03-16T01:13:50.577Z,3.2
2017-03-16T01:14:52.434Z,3.2
2017-03-16T01:15:54.273Z,3.3
2017-03-16T01:16:56.123Z,3.2
2017-03-16T01:17:57.973Z,3.2
2017-03-16T01:18:59.844Z,3.1
2017-03-16T01:20:01.687Z,3.1
2017-03-16T01:21:04.230Z,3.2
2017-03-16T01:22:06.222Z,3.2
2017-03-16T01:23:08.330Z,3.3
2017-03-16T01:24:10.465Z,3.2
2017-03-16T01:25:12.591Z,3.2
2017-03-16T01:26:14.592Z,3.2
2017-03-16T01:27:16.959Z,3.1
2017-03-16T01:28:18.801Z,3.1
2017-03-16T01:29:20.990Z,3.2
2017-03-16T01:30:22.828Z,3.1
2017-03-16T01:31:25.032Z,3.1
2017-03-16T01:32:26.882Z,3.1
2017-03-16T01:33:28.732Z,3.1
2017-03-16T01:34:30.576Z,3.1
2017-03-16T01:35:32.434Z,3.1
2017-03-16T01:36:34.288Z,3.1
2017-03-16T01:37:36.812Z,3.1
2017-03-16T01:38:38.654Z,3.1
2017-03-16T01:39:40.503Z,3
2017-03-16T01:40:42.688Z,2.9
2017-03-16T01:41:44.538Z,2.9
2017-03-16T01:42:46.388Z,2.9
2017-03-16T01:43:48.580Z,2.8
2017-03-16T01:44:50.427Z,2.7
2017-03-16T01:45:52.427Z,2.6
2017-03-16T01:46:54.545Z,2.5
2017-03-16T01:47:56.654Z,2.5
2017-03-16T01:48:58.510Z,2.5
2017-03-16T01:50:00.689Z,2.5
2017-03-16T01:51:02.539Z,2.6
2017-03-16T01:52:04.387Z,2.6
2017-03-16T01:53:06.237Z,2.6
2017-03-16T01:54:08.096Z,2.6
2017-03-16T01:55:09.946Z,2.7
2017-03-16T01:56:11.797Z,2.7
2017-03-16T01:57:13.659Z,2.6
2017-03-16T01:58:15.509Z,2.5
2017-03-16T01:59:17.701Z,2.6
2017-03-16T02:00:19.540Z,2.5
2017-03-16T02:01:21.392Z,2.4
2017-03-16T02:02:23.242Z,2.5
2017-03-16T02:03:25.092Z,2.5
2017-03-16T02:04:26.940Z,2.5
2017-03-16T02:05:28.780Z,2.6
2017-03-16T02:06:30.836Z,2.6
2017-03-16T02:07:32.963Z,2.6
2017-03-16T02:08:35.065Z,2.7
2017-03-16T02:09:37.181Z,2.7
2017-03-16T02:10:39.038Z,2.7
2017-03-16T02:11:40.895Z,2.7
2017-03-16T02:12:42.739Z,2.6
2017-03-16T02:13:44.576Z,2.7
2017-03-16T02:14:46.424Z,2.7
2017-03-16T02:15:48.275Z,2.7
2017-03-16T02:16:50.485Z,2.8
2017-03-16T02:17:52.335Z,2.9
2017-03-16T02:18:54.177Z,2.8
2017-03-16T02:19:56.041Z,2.9
2017-03-16T02:20:58.233Z,2.9
2017-03-16T02:22:00.085Z,2.9
2017-03-16T02:23:02.264Z,2.9
2017-03-16T02:24:04.110Z,3
2017-03-16T02:25:05.957Z,3.1
2017-03-16T02:26:07.797Z,3.1
2017-03-16T02:27:09.643Z,3.1
2017-03-16T02:28:11.478Z,3.1
2017-03-16T02:29:13.329Z,3.1
2017-03-16T02:30:15.186Z,3.1
2017-03-16T02:31:17.028Z,3.1
2017-03-16T02:32:18.875Z,3.1
2017-03-16T02:33:20.713Z,3
2017-03-16T02:34:22.570Z,3.1
2017-03-16T02:35:24.425Z,3.1
2017-03-16T02:36:26.273Z,3
2017-03-16T02:37:28.117Z,3
2017-03-16T02:38:30.647Z,3
2017-03-16T02:39:32.495Z,3
2017-03-16T02:40:34.344Z,3
2017-03-16T02:41:36.181Z,2.9
2017-03-16T02:42:38.375Z,3
2017-03-16T02:43:40.221Z,3
2017-03-16T02:44:42.069Z,3
2017-03-16T02:45:43.914Z,3
2017-03-16T02:46:45.758Z,3
2017-03-16T02:47:47.601Z,3
2017-03-16T02:48:49.792Z,3
2017-03-16T02:49:51.643Z,3
2017-03-16T02:50:53.497Z,2.9
2017-03-16T02:51:55.348Z,2.9
2017-03-16T02:52:57.218Z,2.9
2017-03-16T02:53:59.411Z,2.9
2017-03-16T02:55:01.611Z,2.9
2017-03-16T02:56:03.454Z,2.9
2017-03-16T02:57:05.311Z,2.9
2017-03-16T02:58:07.154Z,2.9
2017-03-16T02:59:08.999Z,2.9
2017-03-16T03:00:10.842Z,2.9
2017-03-16T03:01:12.699Z,2.9
2017-03-16T03:02:14.541Z,2.9
2017-03-16T03:03:16.736Z,2.9
2017-03-16T03:04:18.916Z,2.9
2017-03-16T03:05:20.762Z,2.9
2017-03-16T03:06:22.618Z,2.8
2017-03-16T03:07:24.464Z,2.9
2017-03-16T03:08:26.317Z,2.8
2017-03-16T03:09:28.169Z,2.9
2017-03-16T03:10:30.020Z,2.9
2017-03-16T03:11:31.863Z,2.8
2017-03-16T03:12:33.709Z,2.8
2017-03-16T03:13:35.562Z,2.8
2017-03-16T03:14:37.405Z,2.8
2017-03-16T03:15:39.249Z,2.8
2017-03-16T03:16:41.093Z,2.8
2017-03-16T03:17:42.942Z,2.7
2017-03-16T03:18:44.795Z,2.7
2017-03-16T03:19:46.632Z,2.7
2017-03-16T03:20:48.479Z,2.8
2017-03-16T03:21:50.318Z,2.8
2017-03-16T03:22:52.173Z,2.8
2017-03-16T03:23:54.006Z,2.8
2017-03-16T03:24:55.850Z,2.9
2017-03-16T03:25:58.385Z,2.8
2017-03-16T03:27:00.231Z,2.8
2017-03-16T03:28:02.069Z,2.8
2017-03-16T03:29:03.906Z,2.9
2017-03-16T03:30:05.770Z,2.9
2017-03-16T03:31:07.621Z,2.8
2017-03-16T03:32:09.463Z,2.8
2017-03-16T03:33:11.308Z,2.8
2017-03-16T03:34:13.486Z,2.8
2017-03-16T03:35:15.347Z,2.8
2017-03-16T03:36:17.193Z,2.8
2017-03-16T03:37:19.041Z,2.7
2017-03-16T03:38:20.886Z,2.7
2017-03-16T03:39:22.737Z,2.8
2017-03-16T03:40:24.589Z,2.8
2017-03-16T03:41:26.434Z,2.8
2017-03-16T03:42:28.267Z,2.7
2017-03-16T03:43:30.115Z,2.7
2017-03-16T03:44:31.960Z,2.7
2017-03-16T03:45:33.805Z,2.7
2017-03-16T03:46:35.641Z,2.7
2017-03-16T03:47:37.490Z,2.7
2017-03-16T03:48:39.332Z,2.7
2017-03-16T03:49:41.178Z,2.7
2017-03-16T03:50:43.009Z,2.7
2017-03-16T03:51:44.850Z,2.6
2017-03-16T03:52:46.693Z,2.6
2017-03-16T03:53:48.540Z,2.6
2017-03-16T03:54:50.385Z,2.6
2017-03-16T03:55:52.222Z,2.6
2017-03-16T03:56:54.404Z,2.6
2017-03-16T03:57:56.256Z,2.6
2017-03-16T03:58:58.098Z,2.6
2017-03-16T03:59:59.940Z,2.7
2017-03-16T04:01:01.787Z,2.7
2017-03-16T04:02:03.630Z,2.7
2017-03-16T04:03:05.806Z,2.7
2017-03-16T04:04:07.661Z,2.7
2017-03-16T04:05:09.500Z,2.7
2017-03-16T04:06:11.342Z,2.7
2017-03-16T04:07:13.480Z,2.7
2017-03-16T04:08:15.334Z,2.7
2017-03-16T04:09:17.180Z,2.6
2017-03-16T04:10:19.032Z,2.6
2017-03-16T04:11:20.880Z,2.6
2017-03-16T04:12:22.723Z,2.6
2017-03-16T04:13:24.568Z,2.6
2017-03-16T04:14:26.409Z,2.6
2017-03-16T04:15:28.247Z,2.6
2017-03-16T04:16:30.091Z,2.6
2017-03-16T04:17:31.949Z,2.5
2017-03-16T04:18:33.796Z,2.6
2017-03-16T04:19:35.634Z,2.6
2017-03-16T04:20:37.481Z,2.6
2017-03-16T04:21:39.659Z,2.5
2017-03-16T04:22:41.507Z,2.5
2017-03-16T04:23:43.354Z,2.5
2017-03-16T04:24:45.201Z,2.6
2017-03-16T04:25:47.082Z,2.6
2017-03-16T04:26:48.930Z,2.5
2017-03-16T04:27:50.777Z,2.5
2017-03-16T04:28:52.956Z,2.5
2017-03-16T04:29:54.802Z,2.5
2017-03-16T04:30:56.650Z,2.6
2017-03-16T04:31:58.488Z,2.6
2017-03-16T04:33:00.688Z,2.7
2017-03-16T04:34:02.870Z,2.7
2017-03-16T04:35:04.716Z,2.7
2017-03-16T04:36:06.566Z,2.7
2017-03-16T04:37:08.405Z,2.7
2017-03-16T04:38:10.251Z,2.7
2017-03-16T04:39:12.088Z,2.7
2017-03-16T04:40:14.286Z,2.7
2017-03-16T04:41:16.126Z,2.8
2017-03-16T04:42:17.976Z,2.8
2017-03-16T04:43:19.821Z,2.8
2017-03-16T04:44:21.667Z,2.8
2017-03-16T04:45:23.517Z,2.8
2017-03-16T04:46:25.356Z,2.8
2017-03-16T04:47:27.211Z,2.8
2017-03-16T04:48:29.047Z,2.9
2017-03-16T04:49:30.892Z,2.9
2017-03-16T04:50:32.736Z,2.9
2017-03-16T04:51:34.582Z,2.9
2017-03-16T04:52:36.422Z,2.9
2017-03-16T04:53:38.264Z,2.9
2017-03-16T04:54:40.112Z,3
2017-03-16T04:55:41.957Z,3
2017-03-16T04:56:44.138Z,3
2017-03-16T04:57:46.000Z,3
2017-03-16T04:58:47.846Z,3
2017-03-16T04:59:49.689Z,3
2017-03-16T05:00:51.531Z,3
2017-03-16T05:01:53.365Z,3.1
2017-03-16T05:02:55.216Z,3
2017-03-16T05:03:57.399Z,3.1
2017-03-16T05:04:59.244Z,3.1
2017-03-16T05:06:01.087Z,3.2
2017-03-16T05:07:02.945Z,3.2
2017-03-16T05:08:04.790Z,3.1
2017-03-16T05:09:07.667Z,3.1
2017-03-16T05:10:09.514Z,3.1
2017-03-16T05:11:11.364Z,3.1
2017-03-16T05:12:13.215Z,3.2
2017-03-16T05:13:15.069Z,3.2
2017-03-16T05:14:17.257Z,3.2
2017-03-16T05:15:19.101Z,3.2
2017-03-16T05:16:20.949Z,3.2
2017-03-16T05:17:22.800Z,3.2
2017-03-16T05:18:24.987Z,3.2
2017-03-16T05:19:26.844Z,3.2
2017-03-16T05:20:28.701Z,3.2
2017-03-16T05:21:30.551Z,3.2
2017-03-16T05:22:32.754Z,3.2
2017-03-16T05:23:34.598Z,3.2
2017-03-16T05:24:36.455Z,3.3
2017-03-16T05:25:38.290Z,3.2
2017-03-16T05:26:40.142Z,3.2
2017-03-16T05:27:41.994Z,3.2
2017-03-16T05:28:44.516Z,3.3
2017-03-16T05:29:46.701Z,3.3
2017-03-16T05:30:48.545Z,3.3
2017-03-16T05:31:50.731Z,3.3
2017-03-16T05:32:52.586Z,3.3
2017-03-16T05:33:54.435Z,3.3
2017-03-16T05:34:56.613Z,3.3
2017-03-16T05:35:58.462Z,3.4
2017-03-16T05:37:00.651Z,3.4
2017-03-16T05:38:02.489Z,3.4
2017-03-16T05:39:04.337Z,3.4
2017-03-16T05:40:06.182Z,3.4
2017-03-16T05:41:08.024Z,3.4
2017-03-16T05:42:09.876Z,3.4
2017-03-16T05:43:11.724Z,3.4
2017-03-16T05:44:13.574Z,3.4
2017-03-16T05:45:15.416Z,3.4
2017-03-16T05:46:17.266Z,3.5
2017-03-16T05:47:19.105Z,3.5
2017-03-16T05:51:44.647Z,3.6
2017-03-16T05:52:46.827Z,3.7
2017-03-16T05:53:49.362Z,3.7
2017-03-16T05:54:51.548Z,3.7
2017-03-16T05:55:53.757Z,3.7
2017-03-16T05:56:55.598Z,3.8
2017-03-16T05:57:57.500Z,3.7
2017-03-16T05:58:59.452Z,3.8
2017-03-16T06:00:01.290Z,3.8
2017-03-16T06:01:03.839Z,3.9
2017-03-16T06:02:05.869Z,3.8
2017-03-16T06:03:08.061Z,3.8
2017-03-16T06:04:09.921Z,3.9
2017-03-16T06:05:11.761Z,3.8
2017-03-16T06:06:13.596Z,3.9
2017-03-16T06:07:15.444Z,3.9
2017-03-16T06:08:17.629Z,3.9
2017-03-16T06:09:19.877Z,3.9
2017-03-16T06:10:21.715Z,3.9
2017-03-16T06:11:24.024Z,3.9
2017-03-16T06:12:25.868Z,3.9
2017-03-16T06:13:27.709Z,3.9
2017-03-16T06:14:30.680Z,3.9
2017-03-16T06:15:32.605Z,3.9
2017-03-16T06:16:34.539Z,3.9
2017-03-16T06:17:36.718Z,4
2017-03-16T06:18:39.149Z,4
2017-03-16T06:19:40.997Z,4
2017-03-16T06:20:42.842Z,4
2017-03-16T06:21:44.716Z,4
2017-03-16T06:22:46.565Z,4
2017-03-16T06:23:48.426Z,4
2017-03-16T06:24:50.932Z,4.1
2017-03-16T06:25:53.089Z,4.1
2017-03-16T06:26:54.943Z,4.1
2017-03-16T06:27:57.135Z,4.1
2017-03-16T06:28:59.003Z,4.2
2017-03-16T06:30:01.781Z,4.2
2017-03-16T06:31:03.622Z,4.2
2017-03-16T06:32:05.465Z,4.2
2017-03-16T06:33:07.313Z,4.2
2017-03-16T06:34:09.267Z,4.2
2017-03-16T06:35:11.443Z,4.2
2017-03-16T06:36:13.368Z,4.3
2017-03-16T06:37:15.238Z,4.3
2017-03-16T06:38:17.771Z,4.3
2017-03-16T06:39:20.273Z,4.3
2017-03-16T06:40:22.965Z,4.3
2017-03-16T06:41:24.816Z,4.4
2017-03-16T06:42:26.652Z,4.3
2017-03-16T06:43:28.662Z,4.4
2017-03-16T06:44:30.737Z,4.4
2017-03-16T06:45:32.594Z,4.4
2017-03-16T06:46:34.561Z,4.4
2017-03-16T06:47:36.393Z,4.4
2017-03-16T06:48:38.252Z,4.4
2017-03-16T06:49:40.100Z,4.4
2017-03-16T06:50:41.949Z,4.4
2017-03-16T06:51:44.529Z,4.4
2017-03-16T06:52:46.578Z,4.4
2017-03-16T06:53:48.776Z,4.5
2017-03-16T06:54:50.961Z,4.5
2017-03-16T06:55:52.988Z,4.5
2017-03-16T06:56:54.833Z,4.5
2017-03-16T06:57:57.368Z,4.5
2017-03-16T06:59:00.548Z,4.5
2017-03-16T07:00:02.390Z,4.6
2017-03-16T07:01:04.315Z,4.6
2017-03-16T07:02:06.153Z,4.7
2017-03-16T07:03:08.345Z,4.7
2017-03-16T07:04:10.660Z,4.7
2017-03-16T07:05:12.509Z,4.6
2017-03-16T07:06:15.128Z,4.6
2017-03-16T07:07:17.059Z,4.6
2017-03-16T07:08:18.902Z,4.6
2017-03-16T07:09:20.767Z,4.6
2017-03-16T07:10:22.919Z,4.6
2017-03-16T07:11:24.751Z,4.6
2017-03-16T07:12:26.593Z,4.7
2017-03-16T07:13:29.579Z,4.6
2017-03-16T07:14:31.419Z,4.6
2017-03-16T07:15:33.252Z,4.5
2017-03-16T07:16:35.150Z,4.6
2017-03-16T07:17:36.998Z,4.6
2017-03-16T07:18:39.188Z,4.6
2017-03-16T07:19:41.163Z,4.6
2017-03-16T07:20:42.988Z,4.7
2017-03-16T07:21:44.838Z,4.7
2017-03-16T07:22:46.818Z,4.6
2017-03-16T07:23:49.014Z,4.7
2017-03-16T07:24:51.546Z,4.6
2017-03-16T07:25:53.562Z,4.6
2017-03-16T07:26:55.406Z,4.7
2017-03-16T07:27:57.253Z,4.7
2017-03-16T07:28:59.250Z,4.7
2017-03-16T07:30:01.438Z,4.7
2017-03-16T07:31:03.622Z,4.7
2017-03-16T07:32:05.631Z,4.7
2017-03-16T07:33:07.485Z,4.7
2017-03-16T07:34:09.329Z,4.7
2017-03-16T07:35:11.288Z,4.8
2017-03-16T07:36:13.121Z,4.8
2017-03-16T07:37:14.963Z,4.8
2017-03-16T07:38:17.297Z,4.8
2017-03-16T07:39:19.139Z,4.8
2017-03-16T07:40:20.978Z,4.8
2017-03-16T07:41:22.969Z,4.9
2017-03-16T07:42:24.803Z,4.9
2017-03-16T07:43:26.649Z,4.9
2017-03-16T07:44:28.487Z,4.9
2017-03-16T07:45:30.327Z,4.9
2017-03-16T07:46:32.170Z,4.9
2017-03-16T07:47:34.000Z,4.9
2017-03-16T07:48:35.892Z,5
2017-03-16T07:49:37.730Z,5
2017-03-16T07:50:39.578Z,5
2017-03-16T07:51:41.460Z,5
2017-03-16T07:52:43.635Z,5
2017-03-16T07:53:45.825Z,5
2017-03-16T07:54:47.684Z,5.1
2017-03-16T07:55:49.523Z,5.1
2017-03-16T07:56:51.362Z,5.1
2017-03-16T07:57:53.203Z,5.2
2017-03-16T07:58:55.189Z,5.2
2017-03-16T07:59:57.707Z,5.2
2017-03-16T08:00:59.885Z,5.2
2017-03-16T08:02:01.725Z,5.2
2017-03-16T08:03:03.570Z,5.3
2017-03-16T08:04:05.415Z,5.4
2017-03-16T08:05:07.256Z,5.4
2017-03-16T08:06:09.299Z,5.4
2017-03-16T08:07:11.135Z,5.4
2017-03-16T08:08:13.320Z,5.4
2017-03-16T08:09:15.505Z,5.4
2017-03-16T08:10:17.336Z,5.4
2017-03-16T08:11:19.173Z,5.5
2017-03-16T08:12:21.017Z,5.5
2017-03-16T08:13:23.052Z,5.5
2017-03-16T08:14:24.885Z,5.5
2017-03-16T08:15:26.723Z,5.6
2017-03-16T08:16:28.560Z,5.7
2017-03-16T08:17:30.403Z,5.7
2017-03-16T08:18:32.239Z,5.7
2017-03-16T08:19:34.417Z,5.7
2017-03-16T08:20:36.260Z,5.7
2017-03-16T08:21:38.101Z,5.6
2017-03-16T08:22:40.287Z,5.7
2017-03-16T08:23:42.119Z,5.7
2017-03-16T08:24:43.957Z,5.7
2017-03-16T08:25:45.873Z,5.6
2017-03-16T08:26:47.740Z,5.7
2017-03-16T08:27:49.592Z,5.7
2017-03-16T08:28:51.422Z,5.7
2017-03-16T08:29:53.264Z,5.8
2017-03-16T08:30:55.097Z,5.7
2017-03-16T08:31:57.123Z,5.8
2017-03-16T08:32:59.153Z,5.9
2017-03-16T08:34:00.986Z,5.9
2017-03-16T08:35:02.822Z,5.9
2017-03-16T08:36:04.665Z,5.9
2017-03-16T08:37:06.504Z,5.9
2017-03-16T08:38:08.365Z,6
2017-03-16T08:39:10.339Z,6
2017-03-16T08:40:12.532Z,6
2017-03-16T08:41:14.709Z,6.1
2017-03-16T08:42:16.548Z,6.1
2017-03-16T08:43:18.654Z,6.1
2017-03-16T08:44:20.497Z,6.2
2017-03-16T08:45:22.345Z,6.3
2017-03-16T08:46:24.188Z,6.4
2017-03-16T08:47:26.029Z,6.3
2017-03-16T08:48:27.865Z,6.4
2017-03-16T08:49:29.705Z,6.3
2017-03-16T08:50:31.540Z,6.3
2017-03-16T08:51:33.370Z,6.3
2017-03-16T08:52:35.219Z,6.3
2017-03-16T08:53:37.057Z,6.4
2017-03-16T08:54:39.236Z,6.5
2017-03-16T08:55:41.072Z,6.6
2017-03-16T08:56:42.907Z,6.7
2017-03-16T08:57:44.748Z,6.8
2017-03-16T08:58:46.584Z,6.8
2017-03-16T08:59:48.422Z,6.8
2017-03-16T09:00:50.262Z,6.9
2017-03-16T09:01:52.459Z,7
2017-03-16T09:02:54.310Z,6.9
2017-03-16T09:03:56.157Z,6.9
2017-03-16T09:04:57.991Z,6.9
2017-03-16T09:05:59.839Z,7
2017-03-16T09:07:01.679Z,7.1
2017-03-16T09:08:03.871Z,7.3
2017-03-16T09:09:05.708Z,7.2
2017-03-16T09:10:07.539Z,7.2
2017-03-16T09:11:09.380Z,7.2
2017-03-16T09:12:11.216Z,7.2
2017-03-16T09:13:13.061Z,7.2
2017-03-16T09:14:14.894Z,7.3
2017-03-16T09:15:16.735Z,7.3
2017-03-16T09:16:18.578Z,7.3
2017-03-16T09:17:20.425Z,7.4
2017-03-16T09:18:22.270Z,7.4
2017-03-16T09:19:24.115Z,7.4
2017-03-16T09:20:25.956Z,7.2
2017-03-16T09:21:27.801Z,7.2
2017-03-16T09:22:29.639Z,7.3
2017-03-16T09:23:31.513Z,7.4
2017-03-16T09:24:33.698Z,7.5
2017-03-16T09:25:35.536Z,7.5
2017-03-16T09:26:37.382Z,7.5
2017-03-16T09:27:39.216Z,7.5
2017-03-16T09:28:41.053Z,7.4
2017-03-16T09:29:43.236Z,7.4
2017-03-16T09:30:45.079Z,7.4
2017-03-16T09:31:46.922Z,7.4
2017-03-16T09:32:48.755Z,7.4
2017-03-16T09:33:50.604Z,7.4
2017-03-16T09:34:52.445Z,7.4
2017-03-16T09:35:54.287Z,7.5
2017-03-16T09:36:56.467Z,7.5
2017-03-16T09:37:58.303Z,7.5
2017-03-16T09:39:00.142Z,7.6
2017-03-16T09:40:01.981Z,7.6
2017-03-16T09:41:04.159Z,7.5
2017-03-16T09:42:05.999Z,7.6
2017-03-16T09:43:07.835Z,7.6
2017-03-16T09:44:09.681Z,7.7
2017-03-16T09:45:11.555Z,7.6
2017-03-16T09:46:13.389Z,7.7
2017-03-16T09:47:15.230Z,7.6
2017-03-16T09:48:17.067Z,7.6
2017-03-16T09:49:18.912Z,7.7
2017-03-16T09:50:20.747Z,7.8
2017-03-16T09:51:22.588Z,7.9
2017-03-16T09:52:24.431Z,7.9
2017-03-16T09:53:26.266Z,8
2017-03-16T09:54:28.118Z,8.1
2017-03-16T09:55:29.960Z,8.2
2017-03-16T09:56:31.799Z,8.2
2017-03-16T09:57:33.641Z,8.2
2017-03-16T09:58:35.485Z,8.2
2017-03-16T09:59:37.327Z,8.2
2017-03-16T10:00:39.520Z,8.3
2017-03-16T10:01:41.365Z,8.3
2017-03-16T10:02:43.197Z,8.3
2017-03-16T10:03:45.046Z,8.4
2017-03-16T10:04:46.890Z,8.4
2017-03-16T10:05:48.726Z,8.4
2017-03-16T10:06:50.575Z,8.4
2017-03-16T10:07:52.421Z,8.4
2017-03-16T10:08:54.259Z,8.4
2017-03-16T10:09:56.093Z,8.5
2017-03-16T10:10:57.942Z,8.4
2017-03-16T10:12:00.138Z,8.5
2017-03-16T10:13:01.985Z,8.5
2017-03-16T10:14:03.828Z,8.5
2017-03-16T10:15:05.673Z,8.5
2017-03-16T10:16:07.516Z,8.6
2017-03-16T10:17:09.361Z,8.6
2017-03-16T10:18:11.196Z,8.6
2017-03-16T10:19:13.030Z,8.6
2017-03-16T10:20:15.207Z,8.6
2017-03-16T10:21:17.052Z,8.8
2017-03-16T10:22:18.892Z,8.8
2017-03-16T10:23:20.733Z,8.9
2017-03-16T10:24:22.571Z,8.9
2017-03-16T10:25:24.746Z,8.9
2017-03-16T10:26:26.596Z,8.8
2017-03-16T10:27:28.435Z,8.9
2017-03-16T10:28:30.656Z,8.9
2017-03-16T10:29:32.495Z,9.2
2017-03-16T10:30:34.685Z,9.3
2017-03-16T10:31:36.523Z,9.3
2017-03-16T10:32:38.366Z,9.3
2017-03-16T10:33:40.214Z,9.4
2017-03-16T10:34:42.052Z,9.6
2017-03-16T10:35:43.938Z,9.6
2017-03-16T10:36:45.786Z,9.6
2017-03-16T10:37:47.631Z,9.6
2017-03-16T10:38:49.476Z,9.6
2017-03-16T10:39:51.660Z,9.7
2017-03-16T10:40:53.499Z,9.6
2017-03-16T10:41:55.340Z,9.6
2017-03-16T10:42:57.186Z,9.6
2017-03-16T10:43:59.033Z,9.6
2017-03-16T10:45:00.872Z,9.7
2017-03-16T10:46:02.717Z,9.8
2017-03-16T10:47:04.564Z,9.9
2017-03-16T10:48:06.412Z,10
2017-03-16T10:49:08.261Z,10.3
2017-03-16T10:50:10.098Z,10.3
2017-03-16T10:51:11.937Z,10.2
2017-03-16T10:52:13.787Z,10.2
2017-03-16T10:53:15.626Z,10.3
2017-03-16T10:54:17.475Z,10.4
2017-03-16T10:55:19.314Z,10.3
2017-03-16T10:56:21.160Z,10.1
2017-03-16T10:57:23.008Z,10.2
2017-03-16T10:58:24.882Z,10.1
2017-03-16T10:59:26.724Z,10.2
2017-03-16T11:00:28.578Z,10.1
2017-03-16T11:01:30.857Z,10.1
2017-03-16T11:02:32.698Z,10.3
2017-03-16T11:03:34.877Z,10.3
2017-03-16T11:04:36.721Z,10.5
2017-03-16T11:05:38.571Z,10.6
2017-03-16T11:06:40.412Z,10.7
2017-03-16T11:07:42.256Z,10.8
2017-03-16T11:08:44.104Z,10.9
2017-03-16T11:09:45.962Z,10.7
2017-03-16T11:10:47.811Z,10.8
2017-03-16T11:11:49.653Z,10.8
2017-03-16T11:12:51.496Z,10.8
2017-03-16T11:13:53.347Z,10.9
2017-03-16T11:14:55.197Z,11.2
2017-03-16T11:15:57.056Z,11.3
2017-03-16T11:16:58.901Z,11.5
2017-03-16T11:18:00.743Z,11.7
2017-03-16T11:19:02.584Z,11.7
2017-03-16T11:20:04.432Z,11.6
2017-03-16T11:21:06.279Z,11.4
2017-03-16T11:22:08.124Z,11.5
2017-03-16T11:23:09.966Z,11.5
2017-03-16T11:24:11.810Z,11.8
2017-03-16T11:25:13.659Z,11.9
2017-03-16T11:26:15.508Z,11.8
2017-03-16T11:27:17.351Z,11.7
2017-03-16T11:28:19.201Z,11.9
2017-03-16T11:29:21.046Z,11.8
2017-03-16T11:30:22.894Z,12
2017-03-16T11:31:24.749Z,11.9
2017-03-16T11:32:27.241Z,11.8
2017-03-16T11:33:29.090Z,11.9
2017-03-16T11:34:30.933Z,11.8
2017-03-16T11:35:32.784Z,11.8
2017-03-16T11:36:34.624Z,11.9
2017-03-16T11:37:36.474Z,11.9
2017-03-16T11:38:38.321Z,12.2
2017-03-16T11:39:40.171Z,12.4
2017-03-16T11:40:42.384Z,12.2
2017-03-16T11:41:44.228Z,12.3
2017-03-16T11:42:46.076Z,12.5
2017-03-16T11:43:47.923Z,12.9
2017-03-16T11:44:49.770Z,12.9
2017-03-16T11:45:51.972Z,13.1
2017-03-16T11:46:53.826Z,13.3
2017-03-16T11:47:56.008Z,13.1
2017-03-16T11:48:57.858Z,13
2017-03-16T11:49:59.704Z,13.2
2017-03-16T11:51:01.557Z,13.1
2017-03-16T11:52:03.408Z,13.4
2017-03-16T11:53:05.265Z,13.4
2017-03-16T11:54:07.115Z,13.4
2017-03-16T11:55:08.987Z,13.2
2017-03-16T11:56:10.842Z,13.4
2017-03-16T11:57:13.047Z,13.2
2017-03-16T11:58:14.899Z,13.1
2017-03-16T11:59:16.750Z,13.3
2017-03-16T12:00:18.601Z,13.2
2017-03-16T12:01:20.457Z,13.2
2017-03-16T12:02:22.312Z,13.4
2017-03-16T12:03:24.457Z,12.9
2017-03-16T12:04:26.302Z,12.9
2017-03-16T12:05:28.152Z,12.9
2017-03-16T12:06:30.003Z,13
2017-03-16T12:07:32.207Z,13.1
2017-03-16T12:08:34.055Z,13.2
2017-03-16T12:09:35.906Z,12.7
2017-03-16T12:10:37.755Z,12.6
2017-03-16T12:11:39.614Z,12.5
2017-03-16T12:12:41.477Z,12.5
2017-03-16T12:13:43.665Z,12.8
2017-03-16T12:14:45.510Z,12.6
2017-03-16T12:15:47.359Z,12.6
2017-03-16T12:16:49.214Z,12.5
2017-03-16T12:17:51.058Z,12.3
2017-03-16T12:18:53.254Z,12
2017-03-16T12:19:55.102Z,12.5
2017-03-16T12:20:56.951Z,12.7
2017-03-16T12:21:58.809Z,12.8
2017-03-16T12:23:00.653Z,13
2017-03-16T12:24:02.504Z,12.8
2017-03-16T12:25:04.349Z,12.9
2017-03-16T12:26:06.208Z,13
2017-03-16T12:27:08.046Z,12.8
2017-03-16T12:28:09.925Z,12.8
2017-03-16T12:29:11.775Z,12.6
2017-03-16T12:30:13.627Z,12.8
2017-03-16T12:31:15.476Z,13
2017-03-16T12:32:17.327Z,13.1
2017-03-16T12:33:19.176Z,13.2
2017-03-16T12:34:21.023Z,13.6
2017-03-16T12:35:22.875Z,13.6
2017-03-16T12:36:24.721Z,13.3
2017-03-16T12:37:26.910Z,12.9
2017-03-16T12:38:28.761Z,13.1
2017-03-16T12:39:30.615Z,13
2017-03-16T12:40:32.467Z,13
2017-03-16T12:41:34.318Z,13.5
2017-03-16T12:42:36.513Z,13.4
2017-03-16T12:43:38.365Z,13.6
2017-03-16T12:44:40.211Z,13.5
2017-03-16T12:45:42.062Z,13.6
2017-03-16T12:46:43.907Z,13.4
2017-03-16T12:47:46.099Z,13.2
2017-03-16T12:48:47.950Z,13.6
2017-03-16T12:49:50.158Z,14.1
2017-03-16T12:50:52.018Z,14.2
2017-03-16T12:51:53.897Z,13.9
2017-03-16T12:52:55.752Z,13.9
2017-03-16T12:53:57.608Z,14.3
2017-03-16T12:54:59.458Z,14.3
2017-03-16T12:56:01.304Z,14.3
2017-03-16T12:57:03.154Z,14.4
2017-03-16T12:58:05.001Z,13.9
2017-03-16T12:59:06.860Z,14
2017-03-16T13:00:08.718Z,14.2
2017-03-16T13:01:10.575Z,14.4
2017-03-16T13:02:12.426Z,14.6
2017-03-16T13:03:14.277Z,14.7
2017-03-16T13:04:16.123Z,14.7
2017-03-16T13:05:17.978Z,14.6
2017-03-16T13:06:19.826Z,14.3
2017-03-16T13:07:22.031Z,14.4
2017-03-16T13:08:23.883Z,14.4
2017-03-16T13:09:25.734Z,14.8
2017-03-16T13:10:27.585Z,14.5
2017-03-16T13:11:29.441Z,14.5
2017-03-16T13:12:31.289Z,14.5
2017-03-16T13:13:33.142Z,14.2
2017-03-16T13:14:34.997Z,14.4
2017-03-16T13:15:37.192Z,14.4
2017-03-16T13:16:39.053Z,14.5
2017-03-16T13:17:40.900Z,14.3
2017-03-16T13:18:42.754Z,14.6
2017-03-16T13:19:44.604Z,14.8
2017-03-16T13:20:46.473Z,14.7
2017-03-16T13:21:48.323Z,14.8
2017-03-16T13:22:50.174Z,14.7
2017-03-16T13:23:52.368Z,14.7
2017-03-16T13:24:54.220Z,14.8
2017-03-16T13:25:56.066Z,14.6
2017-03-16T13:26:57.918Z,14.9
2017-03-16T13:27:59.769Z,14.9
2017-03-16T13:29:01.626Z,15
2017-03-16T13:30:03.483Z,15
2017-03-16T13:31:05.339Z,14.9
2017-03-16T13:32:07.531Z,14.8
2017-03-16T13:33:09.392Z,14.7
2017-03-16T13:34:11.273Z,15.2
2017-03-16T13:35:13.137Z,15.1
2017-03-16T13:36:14.990Z,14.9
2017-03-16T13:37:16.850Z,14.9
2017-03-16T13:38:18.703Z,14.8
2017-03-16T13:39:20.553Z,15
2017-03-16T13:40:22.410Z,15.2
2017-03-16T13:41:24.261Z,15.6
2017-03-16T13:42:26.105Z,15.6
2017-03-16T13:43:27.955Z,15.5
2017-03-16T13:44:29.863Z,15.8
2017-03-16T13:45:31.718Z,15.4
2017-03-16T13:46:33.582Z,15.3
2017-03-16T13:47:35.435Z,15.3
2017-03-16T13:48:37.377Z,15.2
2017-03-16T13:49:39.259Z,14.9
2017-03-16T13:50:41.497Z,15.3
2017-03-16T13:51:43.378Z,15.7
2017-03-16T13:52:45.245Z,15.6
2017-03-16T13:53:47.105Z,15.7
2017-03-16T13:54:48.976Z,16
2017-03-16T13:55:50.847Z,15.8
2017-03-16T13:56:52.851Z,15.6
2017-03-16T13:57:54.761Z,15.9
2017-03-16T13:58:56.625Z,15.2
2017-03-16T13:59:59.137Z,15.5
2017-03-16T14:01:01.046Z,15.6
2017-03-16T14:02:02.907Z,15.5
2017-03-16T14:03:04.864Z,15.4
2017-03-16T14:04:07.079Z,15.3
2017-03-16T14:05:08.940Z,15.2
2017-03-16T14:06:11.156Z,15.4
2017-03-16T14:07:13.012Z,15.7
2017-03-16T14:08:15.046Z,15.5
2017-03-16T14:09:17.004Z,14.8
2017-03-16T14:10:19.151Z,15.2
2017-03-16T14:11:21.023Z,15.4
2017-03-16T14:12:22.979Z,15.4
2017-03-16T14:13:25.105Z,14.9